sensor_id;sensor_type;location;lat;lon;timestamp;P1;durP1;ratioP1;P2;durP2;ratioP2
74168;SDS011;62523;53.336;83.690;2022-11-28T00:03:47;76.30;;;28.00;;
74168;SDS011;62523;53.336;83.690;2022-11-28T00:08:49;80.63;;;30.20;;
74168;SDS011;62523;53.336;83.690;2022-11-28T00:13:50;72.03;;;27.88;;
74168;SDS011;62523;53.336;83.690;2022-11-28T00:18:52;89.27;;;34.80;;
74168;SDS011;62523;53.336;83.690;2022-11-28T00:23:54;86.73;;;29.13;;
74168;SDS011;62523;53.336;83.690;2022-11-28T00:28:55;98.67;;;29.83;;
74168;SDS011;62523;53.336;83.690;2022-11-28T00:33:56;80.13;;;30.35;;
74168;SDS011;62523;53.336;83.690;2022-11-28T00:38:58;92.47;;;31.43;;
74168;SDS011;62523;53.336;83.690;2022-11-28T00:43:59;167.82;;;82.13;;
74168;SDS011;62523;53.336;83.690;2022-11-28T00:49:01;148.05;;;80.45;;
74168;SDS011;62523;53.336;83.690;2022-11-28T00:54:02;157.13;;;90.53;;
74168;SDS011;62523;53.336;83.690;2022-11-28T00:59:04;223.63;;;128.23;;
74168;SDS011;62523;53.336;83.690;2022-11-28T01:04:07;286.92;;;175.02;;
74168;SDS011;62523;53.336;83.690;2022-11-28T01:09:12;300.10;;;173.57;;
74168;SDS011;62523;53.336;83.690;2022-11-28T01:14:15;307.87;;;177.13;;
74168;SDS011;62523;53.336;83.690;2022-11-28T01:19:18;242.90;;;155.40;;
74168;SDS011;62523;53.336;83.690;2022-11-28T01:24:20;242.88;;;151.25;;
74168;SDS011;62523;53.336;83.690;2022-11-28T01:29:21;229.23;;;132.18;;
74168;SDS011;62523;53.336;83.690;2022-11-28T01:34:22;226.27;;;126.80;;
74168;SDS011;62523;53.336;83.690;2022-11-28T01:39:25;227.70;;;145.15;;
74168;SDS011;62523;53.336;83.690;2022-11-28T01:49:36;177.68;;;105.43;;
74168;SDS011;62523;53.336;83.690;2022-11-28T01:54:37;172.70;;;104.65;;
74168;SDS011;62523;53.336;83.690;2022-11-28T01:59:50;159.55;;;95.70;;
74168;SDS011;62523;53.336;83.690;2022-11-28T02:04:57;165.13;;;98.28;;
74168;SDS011;62523;53.336;83.690;2022-11-28T02:09:58;163.13;;;88.67;;
74168;SDS011;62523;53.336;83.690;2022-11-28T02:15:13;142.45;;;82.15;;
74168;SDS011;62523;53.336;83.690;2022-11-28T02:20:32;124.05;;;72.38;;
74168;SDS011;62523;53.336;83.690;2022-11-28T02:36:27;114.95;;;61.70;;
74168;SDS011;62523;53.336;83.690;2022-11-28T02:41:52;96.53;;;56.45;;
74168;SDS011;62523;53.336;83.690;2022-11-28T02:47:01;165.82;;;93.60;;
74168;SDS011;62523;53.336;83.690;2022-11-28T02:52:12;126.47;;;77.75;;
74168;SDS011;62523;53.336;83.690;2022-11-28T03:02:19;79.43;;;34.47;;
74168;SDS011;62523;53.336;83.690;2022-11-28T03:07:43;63.47;;;27.35;;
74168;SDS011;62523;53.336;83.690;2022-11-28T03:13:05;79.22;;;33.97;;
74168;SDS011;62523;53.336;83.690;2022-11-28T03:18:17;66.35;;;29.15;;
74168;SDS011;62523;53.336;83.690;2022-11-28T03:23:27;106.30;;;44.60;;
74168;SDS011;62523;53.336;83.690;2022-11-28T03:28:39;147.20;;;57.05;;
74168;SDS011;62523;53.336;83.690;2022-11-28T03:33:48;129.90;;;47.90;;
74168;SDS011;62523;53.336;83.690;2022-11-28T03:38:58;141.93;;;52.22;;
74168;SDS011;62523;53.336;83.690;2022-11-28T03:44:10;129.43;;;51.78;;
74168;SDS011;62523;53.336;83.690;2022-11-28T03:49:20;147.07;;;59.63;;
74168;SDS011;62523;53.336;83.690;2022-11-28T03:54:48;145.25;;;59.20;;
74168;SDS011;62523;53.336;83.690;2022-11-28T03:59:55;173.65;;;61.83;;
74168;SDS011;62523;53.336;83.690;2022-11-28T04:05:34;122.75;;;50.10;;
74168;SDS011;62523;53.336;83.690;2022-11-28T04:10:36;153.82;;;57.38;;
74168;SDS011;62523;53.336;83.690;2022-11-28T04:21:26;224.53;;;86.47;;
74168;SDS011;62523;53.336;83.690;2022-11-28T04:26:36;224.03;;;76.70;;
74168;SDS011;62523;53.336;83.690;2022-11-28T04:31:41;207.87;;;78.67;;
74168;SDS011;62523;53.336;83.690;2022-11-28T04:36:44;206.93;;;80.23;;
74168;SDS011;62523;53.336;83.690;2022-11-28T04:41:52;205.47;;;78.93;;
74168;SDS011;62523;53.336;83.690;2022-11-28T04:46:57;202.67;;;73.80;;
74168;SDS011;62523;53.336;83.690;2022-11-28T04:57:55;78.47;;;33.40;;
74168;SDS011;62523;53.336;83.690;2022-11-28T05:03:18;69.57;;;24.20;;
74168;SDS011;62523;53.336;83.690;2022-11-28T05:13:21;40.27;;;15.10;;
74168;SDS011;62523;53.336;83.690;2022-11-28T05:18:22;37.03;;;17.13;;
74168;SDS011;62523;53.336;83.690;2022-11-28T05:23:23;62.47;;;19.27;;
74168;SDS011;62523;53.336;83.690;2022-11-28T05:28:24;42.37;;;14.80;;
74168;SDS011;62523;53.336;83.690;2022-11-28T05:33:27;52.23;;;17.23;;
74168;SDS011;62523;53.336;83.690;2022-11-28T05:38:30;38.80;;;15.00;;
74168;SDS011;62523;53.336;83.690;2022-11-28T05:43:31;37.43;;;14.23;;
74168;SDS011;62523;53.336;83.690;2022-11-28T05:48:33;55.93;;;18.67;;
74168;SDS011;62523;53.336;83.690;2022-11-28T05:53:35;59.95;;;20.02;;
74168;SDS011;62523;53.336;83.690;2022-11-28T05:58:36;66.30;;;22.77;;
74168;SDS011;62523;53.336;83.690;2022-11-28T06:03:37;57.97;;;22.90;;
74168;SDS011;62523;53.336;83.690;2022-11-28T06:08:39;58.83;;;19.92;;
74168;SDS011;62523;53.336;83.690;2022-11-28T06:13:42;54.22;;;17.45;;
74168;SDS011;62523;53.336;83.690;2022-11-28T06:18:44;42.50;;;17.13;;
74168;SDS011;62523;53.336;83.690;2022-11-28T06:23:46;51.53;;;17.70;;
74168;SDS011;62523;53.336;83.690;2022-11-28T06:28:47;50.63;;;18.65;;
74168;SDS011;62523;53.336;83.690;2022-11-28T06:33:49;50.53;;;16.90;;
74168;SDS011;62523;53.336;83.690;2022-11-28T06:38:50;60.47;;;18.08;;
74168;SDS011;62523;53.336;83.690;2022-11-28T06:43:51;52.13;;;20.23;;
74168;SDS011;62523;53.336;83.690;2022-11-28T06:48:52;42.17;;;18.03;;
74168;SDS011;62523;53.336;83.690;2022-11-28T06:53:54;48.27;;;15.70;;
74168;SDS011;62523;53.336;83.690;2022-11-28T06:58:56;31.23;;;11.37;;
74168;SDS011;62523;53.336;83.690;2022-11-28T07:03:58;28.23;;;13.63;;
74168;SDS011;62523;53.336;83.690;2022-11-28T07:09:01;39.33;;;14.87;;
74168;SDS011;62523;53.336;83.690;2022-11-28T07:14:02;44.20;;;15.95;;
74168;SDS011;62523;53.336;83.690;2022-11-28T07:19:03;51.03;;;20.93;;
74168;SDS011;62523;53.336;83.690;2022-11-28T07:24:05;27.97;;;9.87;;
74168;SDS011;62523;53.336;83.690;2022-11-28T07:29:06;39.03;;;13.18;;
74168;SDS011;62523;53.336;83.690;2022-11-28T07:34:09;31.20;;;13.17;;
74168;SDS011;62523;53.336;83.690;2022-11-28T07:39:11;32.65;;;12.45;;
74168;SDS011;62523;53.336;83.690;2022-11-28T07:44:16;42.30;;;11.23;;
74168;SDS011;62523;53.336;83.690;2022-11-28T07:49:17;38.33;;;13.87;;
74168;SDS011;62523;53.336;83.690;2022-11-28T07:54:19;38.33;;;14.10;;
74168;SDS011;62523;53.336;83.690;2022-11-28T07:59:20;31.37;;;11.07;;
74168;SDS011;62523;53.336;83.690;2022-11-28T08:04:21;31.63;;;11.57;;
74168;SDS011;62523;53.336;83.690;2022-11-28T08:09:22;27.40;;;10.25;;
74168;SDS011;62523;53.336;83.690;2022-11-28T08:14:24;35.80;;;11.17;;
74168;SDS011;62523;53.336;83.690;2022-11-28T08:19:25;34.87;;;13.47;;
74168;SDS011;62523;53.336;83.690;2022-11-28T08:24:26;43.07;;;17.23;;
74168;SDS011;62523;53.336;83.690;2022-11-28T08:29:27;50.77;;;18.83;;
74168;SDS011;62523;53.336;83.690;2022-11-28T08:34:28;85.97;;;29.00;;
74168;SDS011;62523;53.336;83.690;2022-11-28T08:39:29;40.07;;;15.27;;
74168;SDS011;62523;53.336;83.690;2022-11-28T08:44:30;42.97;;;20.83;;
74168;SDS011;62523;53.336;83.690;2022-11-28T08:49:31;56.87;;;22.03;;
74168;SDS011;62523;53.336;83.690;2022-11-28T08:54:32;41.50;;;16.67;;
74168;SDS011;62523;53.336;83.690;2022-11-28T08:59:33;32.83;;;13.68;;
74168;SDS011;62523;53.336;83.690;2022-11-28T09:04:35;41.45;;;15.00;;
74168;SDS011;62523;53.336;83.690;2022-11-28T09:09:36;30.63;;;12.67;;
74168;SDS011;62523;53.336;83.690;2022-11-28T09:14:37;35.97;;;14.93;;
74168;SDS011;62523;53.336;83.690;2022-11-28T09:19:38;31.83;;;13.80;;
74168;SDS011;62523;53.336;83.690;2022-11-28T09:24:41;31.57;;;12.43;;
74168;SDS011;62523;53.336;83.690;2022-11-28T09:29:42;41.87;;;14.13;;
74168;SDS011;62523;53.336;83.690;2022-11-28T09:34:44;24.20;;;11.50;;
74168;SDS011;62523;53.336;83.690;2022-11-28T09:39:45;43.27;;;14.93;;
74168;SDS011;62523;53.336;83.690;2022-11-28T09:45:20;24.60;;;9.98;;
74168;SDS011;62523;53.336;83.690;2022-11-28T09:56:07;43.50;;;15.63;;
74168;SDS011;62523;53.336;83.690;2022-11-28T10:11:14;31.93;;;11.97;;
74168;SDS011;62523;53.336;83.690;2022-11-28T10:21:57;41.70;;;10.73;;
74168;SDS011;62523;53.336;83.690;2022-11-28T10:27:03;32.27;;;12.63;;
74168;SDS011;62523;53.336;83.690;2022-11-28T10:32:05;38.63;;;14.67;;
74168;SDS011;62523;53.336;83.690;2022-11-28T10:37:19;54.90;;;14.87;;
74168;SDS011;62523;53.336;83.690;2022-11-28T10:42:31;37.73;;;15.17;;
74168;SDS011;62523;53.336;83.690;2022-11-28T10:48:05;37.20;;;13.27;;
74168;SDS011;62523;53.336;83.690;2022-11-28T11:04:19;33.90;;;15.43;;
74168;SDS011;62523;53.336;83.690;2022-11-28T11:09:22;43.27;;;13.57;;
74168;SDS011;62523;53.336;83.690;2022-11-28T11:14:36;57.53;;;17.30;;
74168;SDS011;62523;53.336;83.690;2022-11-28T11:19:42;43.13;;;16.00;;
74168;SDS011;62523;53.336;83.690;2022-11-28T11:24:43;49.23;;;16.37;;
74168;SDS011;62523;53.336;83.690;2022-11-28T11:30:45;28.60;;;12.33;;
74168;SDS011;62523;53.336;83.690;2022-11-28T11:35:33;29.80;;;10.10;;
74168;SDS011;62523;53.336;83.690;2022-11-28T11:40:36;25.97;;;9.63;;
74168;SDS011;62523;53.336;83.690;2022-11-28T11:45:37;24.03;;;9.67;;
74168;SDS011;62523;53.336;83.690;2022-11-28T11:50:39;37.67;;;12.50;;
74168;SDS011;62523;53.336;83.690;2022-11-28T11:55:53;30.30;;;9.83;;
74168;SDS011;62523;53.336;83.690;2022-11-28T12:00:57;38.37;;;11.70;;
74168;SDS011;62523;53.336;83.690;2022-11-28T12:06:05;50.93;;;15.33;;
74168;SDS011;62523;53.336;83.690;2022-11-28T12:11:33;60.27;;;14.63;;
74168;SDS011;62523;53.336;83.690;2022-11-28T12:16:46;75.23;;;19.93;;
74168;SDS011;62523;53.336;83.690;2022-11-28T12:22:13;46.70;;;16.57;;
74168;SDS011;62523;53.336;83.690;2022-11-28T12:54:29;23.87;;;9.80;;
74168;SDS011;62523;53.336;83.690;2022-11-28T13:20:44;31.10;;;11.13;;
74168;SDS011;62523;53.336;83.690;2022-11-28T13:26:08;41.93;;;14.03;;
74168;SDS011;62523;53.336;83.690;2022-11-28T13:36:44;59.77;;;17.73;;
74168;SDS011;62523;53.336;83.690;2022-11-28T13:57:27;41.58;;;17.75;;
74168;SDS011;62523;53.336;83.690;2022-11-28T14:02:46;47.40;;;18.30;;
74168;SDS011;62523;53.336;83.690;2022-11-28T14:07:52;53.30;;;20.20;;
74168;SDS011;62523;53.336;83.690;2022-11-28T14:13:06;46.75;;;17.73;;
74168;SDS011;62523;53.336;83.690;2022-11-28T14:29:23;48.93;;;17.83;;
74168;SDS011;62523;53.336;83.690;2022-11-28T14:34:48;46.10;;;15.97;;
74168;SDS011;62523;53.336;83.690;2022-11-28T14:39:50;39.57;;;14.63;;
74168;SDS011;62523;53.336;83.690;2022-11-28T14:44:53;54.70;;;17.23;;
74168;SDS011;62523;53.336;83.690;2022-11-28T15:00:14;76.27;;;22.57;;
74168;SDS011;62523;53.336;83.690;2022-11-28T15:05:19;60.00;;;22.60;;
74168;SDS011;62523;53.336;83.690;2022-11-28T15:15:48;52.20;;;19.43;;
74168;SDS011;62523;53.336;83.690;2022-11-28T15:20:55;69.63;;;20.07;;
74168;SDS011;62523;53.336;83.690;2022-11-28T15:26:01;52.57;;;19.90;;
74168;SDS011;62523;53.336;83.690;2022-11-28T15:31:03;101.33;;;47.57;;
74168;SDS011;62523;53.336;83.690;2022-11-28T15:41:12;44.43;;;19.17;;
74168;SDS011;62523;53.336;83.690;2022-11-28T15:46:18;44.57;;;19.30;;
74168;SDS011;62523;53.336;83.690;2022-11-28T15:51:28;60.03;;;19.30;;
74168;SDS011;62523;53.336;83.690;2022-11-28T15:56:31;71.82;;;24.52;;
74168;SDS011;62523;53.336;83.690;2022-11-28T16:01:34;63.35;;;20.73;;
74168;SDS011;62523;53.336;83.690;2022-11-28T16:06:36;94.13;;;27.40;;
74168;SDS011;62523;53.336;83.690;2022-11-28T16:11:40;102.27;;;27.00;;
74168;SDS011;62523;53.336;83.690;2022-11-28T16:16:44;79.53;;;28.03;;
74168;SDS011;62523;53.336;83.690;2022-11-28T16:21:49;82.33;;;27.57;;
74168;SDS011;62523;53.336;83.690;2022-11-28T16:32:48;74.27;;;25.03;;
74168;SDS011;62523;53.336;83.690;2022-11-28T16:37:50;74.73;;;26.77;;
74168;SDS011;62523;53.336;83.690;2022-11-28T16:42:52;104.40;;;29.40;;
74168;SDS011;62523;53.336;83.690;2022-11-28T16:48:15;84.80;;;26.90;;
74168;SDS011;62523;53.336;83.690;2022-11-28T16:59:00;110.50;;;30.53;;
74168;SDS011;62523;53.336;83.690;2022-11-28T17:04:25;62.30;;;20.23;;
74168;SDS011;62523;53.336;83.690;2022-11-28T17:09:28;39.33;;;16.97;;
74168;SDS011;62523;53.336;83.690;2022-11-28T17:14:30;39.80;;;14.60;;
74168;SDS011;62523;53.336;83.690;2022-11-28T17:19:31;49.80;;;20.27;;
74168;SDS011;62523;53.336;83.690;2022-11-28T17:24:33;46.97;;;16.07;;
74168;SDS011;62523;53.336;83.690;2022-11-28T17:29:35;44.60;;;13.27;;
74168;SDS011;62523;53.336;83.690;2022-11-28T17:34:36;45.60;;;14.60;;
74168;SDS011;62523;53.336;83.690;2022-11-28T17:39:38;42.85;;;14.75;;
74168;SDS011;62523;53.336;83.690;2022-11-28T17:44:59;50.03;;;19.20;;
74168;SDS011;62523;53.336;83.690;2022-11-28T17:50:00;54.23;;;20.90;;
74168;SDS011;62523;53.336;83.690;2022-11-28T17:55:03;69.47;;;26.97;;
74168;SDS011;62523;53.336;83.690;2022-11-28T18:00:05;60.25;;;23.38;;
74168;SDS011;62523;53.336;83.690;2022-11-28T18:05:08;65.23;;;25.80;;
74168;SDS011;62523;53.336;83.690;2022-11-28T18:10:09;55.53;;;22.23;;
74168;SDS011;62523;53.336;83.690;2022-11-28T18:15:10;51.90;;;16.63;;
74168;SDS011;62523;53.336;83.690;2022-11-28T18:20:11;42.30;;;14.00;;
74168;SDS011;62523;53.336;83.690;2022-11-28T18:25:13;37.93;;;15.30;;
74168;SDS011;62523;53.336;83.690;2022-11-28T18:30:14;40.20;;;16.00;;
74168;SDS011;62523;53.336;83.690;2022-11-28T18:35:16;41.88;;;13.75;;
74168;SDS011;62523;53.336;83.690;2022-11-28T18:40:18;37.60;;;15.83;;
74168;SDS011;62523;53.336;83.690;2022-11-28T18:45:19;44.33;;;17.37;;
74168;SDS011;62523;53.336;83.690;2022-11-28T18:50:21;34.73;;;15.47;;
74168;SDS011;62523;53.336;83.690;2022-11-28T18:55:22;52.88;;;19.92;;
74168;SDS011;62523;53.336;83.690;2022-11-28T19:00:23;51.20;;;15.90;;
74168;SDS011;62523;53.336;83.690;2022-11-28T19:11:59;59.47;;;20.97;;
74168;SDS011;62523;53.336;83.690;2022-11-28T19:17:03;44.53;;;15.83;;
74168;SDS011;62523;53.336;83.690;2022-11-28T19:22:04;49.47;;;19.10;;
74168;SDS011;62523;53.336;83.690;2022-11-28T19:27:06;40.22;;;13.18;;
74168;SDS011;62523;53.336;83.690;2022-11-28T19:32:08;41.23;;;13.37;;
74168;SDS011;62523;53.336;83.690;2022-11-28T19:37:09;37.80;;;13.10;;
74168;SDS011;62523;53.336;83.690;2022-11-28T19:42:10;31.30;;;14.43;;
74168;SDS011;62523;53.336;83.690;2022-11-28T19:47:13;25.63;;;12.67;;
74168;SDS011;62523;53.336;83.690;2022-11-28T19:52:14;32.60;;;11.47;;
74168;SDS011;62523;53.336;83.690;2022-11-28T19:57:15;42.25;;;11.88;;
74168;SDS011;62523;53.336;83.690;2022-11-28T20:02:17;27.90;;;11.17;;
74168;SDS011;62523;53.336;83.690;2022-11-28T20:07:20;30.70;;;12.07;;
74168;SDS011;62523;53.336;83.690;2022-11-28T20:12:21;33.43;;;12.87;;
74168;SDS011;62523;53.336;83.690;2022-11-28T20:17:23;24.03;;;12.07;;
74168;SDS011;62523;53.336;83.690;2022-11-28T20:22:24;32.07;;;12.57;;
74168;SDS011;62523;53.336;83.690;2022-11-28T20:27:25;41.93;;;13.70;;
74168;SDS011;62523;53.336;83.690;2022-11-28T20:32:26;43.53;;;15.03;;
74168;SDS011;62523;53.336;83.690;2022-11-28T20:37:27;25.23;;;11.15;;
74168;SDS011;62523;53.336;83.690;2022-11-28T20:42:28;30.47;;;10.93;;
74168;SDS011;62523;53.336;83.690;2022-11-28T20:47:32;25.90;;;11.63;;
74168;SDS011;62523;53.336;83.690;2022-11-28T20:52:34;28.67;;;12.70;;
74168;SDS011;62523;53.336;83.690;2022-11-28T20:57:35;59.07;;;20.73;;
74168;SDS011;62523;53.336;83.690;2022-11-28T21:02:36;39.57;;;18.60;;
74168;SDS011;62523;53.336;83.690;2022-11-28T21:07:37;43.40;;;14.93;;
74168;SDS011;62523;53.336;83.690;2022-11-28T21:12:38;31.03;;;13.50;;
74168;SDS011;62523;53.336;83.690;2022-11-28T21:17:39;41.53;;;14.57;;
74168;SDS011;62523;53.336;83.690;2022-11-28T21:22:40;49.53;;;16.93;;
74168;SDS011;62523;53.336;83.690;2022-11-28T21:27:41;44.93;;;17.53;;
74168;SDS011;62523;53.336;83.690;2022-11-28T21:32:42;51.83;;;18.40;;
74168;SDS011;62523;53.336;83.690;2022-11-28T21:37:43;59.00;;;19.07;;
74168;SDS011;62523;53.336;83.690;2022-11-28T21:42:44;65.27;;;23.90;;
74168;SDS011;62523;53.336;83.690;2022-11-28T21:47:45;61.60;;;22.90;;
74168;SDS011;62523;53.336;83.690;2022-11-28T21:52:46;53.87;;;22.77;;
74168;SDS011;62523;53.336;83.690;2022-11-28T21:57:47;80.20;;;25.77;;
74168;SDS011;62523;53.336;83.690;2022-11-28T22:02:48;63.13;;;22.43;;
74168;SDS011;62523;53.336;83.690;2022-11-28T22:07:49;73.23;;;23.40;;
74168;SDS011;62523;53.336;83.690;2022-11-28T22:12:50;54.47;;;17.90;;
74168;SDS011;62523;53.336;83.690;2022-11-28T22:17:52;66.17;;;21.17;;
74168;SDS011;62523;53.336;83.690;2022-11-28T22:22:54;57.90;;;19.03;;
74168;SDS011;62523;53.336;83.690;2022-11-28T22:27:55;53.30;;;24.13;;
74168;SDS011;62523;53.336;83.690;2022-11-28T22:32:56;56.00;;;22.97;;
74168;SDS011;62523;53.336;83.690;2022-11-28T22:37:57;47.23;;;17.97;;
74168;SDS011;62523;53.336;83.690;2022-11-28T22:42:58;50.57;;;15.33;;
74168;SDS011;62523;53.336;83.690;2022-11-28T22:47:59;53.20;;;19.10;;
74168;SDS011;62523;53.336;83.690;2022-11-28T22:53:00;47.10;;;17.55;;
74168;SDS011;62523;53.336;83.690;2022-11-28T22:58:01;51.33;;;20.97;;
74168;SDS011;62523;53.336;83.690;2022-11-28T23:03:03;55.00;;;20.17;;
74168;SDS011;62523;53.336;83.690;2022-11-28T23:08:04;35.28;;;15.82;;
74168;SDS011;62523;53.336;83.690;2022-11-28T23:13:05;44.75;;;18.33;;
74168;SDS011;62523;53.336;83.690;2022-11-28T23:18:06;47.70;;;19.03;;
74168;SDS011;62523;53.336;83.690;2022-11-28T23:23:07;44.17;;;19.03;;
74168;SDS011;62523;53.336;83.690;2022-11-28T23:28:08;34.33;;;16.35;;
74168;SDS011;62523;53.336;83.690;2022-11-28T23:33:09;68.07;;;20.97;;
74168;SDS011;62523;53.336;83.690;2022-11-28T23:38:10;56.73;;;21.10;;
74168;SDS011;62523;53.336;83.690;2022-11-28T23:43:11;60.73;;;23.40;;
74168;SDS011;62523;53.336;83.690;2022-11-28T23:48:12;73.23;;;26.77;;
74168;SDS011;62523;53.336;83.690;2022-11-28T23:53:14;60.40;;;21.40;;
74168;SDS011;62523;53.336;83.690;2022-11-28T23:58:15;64.47;;;22.57;;
